createdAt,value
2018-09-10T00:01:08.539Z,1.73
2018-09-10T00:03:12.856Z,1.90
2018-09-10T00:05:16.996Z,2.10
2018-09-10T00:07:21.263Z,1.90
2018-09-10T00:09:25.609Z,1.90
2018-09-10T00:11:29.912Z,2.43
2018-09-10T00:13:35.229Z,2.20
2018-09-10T00:15:39.458Z,2.43
2018-09-10T00:17:43.652Z,2.40
2018-09-10T00:19:47.882Z,2.90
2018-09-10T00:21:52.176Z,3.70
2018-09-10T00:23:56.375Z,4.23
2018-09-10T00:26:01.351Z,4.73
2018-09-10T00:28:05.657Z,3.23
2018-09-10T00:30:09.938Z,7.03
2018-09-10T00:32:14.179Z,7.50
2018-09-10T00:34:18.602Z,3.70
2018-09-10T00:36:22.850Z,10.90
2018-09-10T00:38:27.134Z,10.63
2018-09-10T00:40:31.341Z,16.33
2018-09-10T00:42:35.668Z,18.40
2018-09-10T00:44:39.868Z,16.67
2018-09-10T00:46:44.146Z,21.73
2018-09-10T00:48:48.714Z,24.10
2018-09-10T00:50:52.917Z,34.30
2018-09-10T00:52:57.134Z,33.73
2018-09-10T00:55:01.408Z,33.27
2018-09-10T00:57:05.693Z,27.87
2018-09-10T00:59:09.964Z,30.53
2018-09-10T01:01:14.239Z,17.37
2018-09-10T01:03:18.488Z,26.13
2018-09-10T01:05:23.057Z,29.07
2018-09-10T01:07:27.238Z,18.07
2018-09-10T01:09:31.432Z,30.90
2018-09-10T01:11:35.752Z,30.80
2018-09-10T01:13:39.956Z,16.67
2018-09-10T01:15:44.352Z,33.90
2018-09-10T01:17:48.582Z,34.03
2018-09-10T01:19:52.870Z,31.80
2018-09-10T01:21:57.039Z,38.43
2018-09-10T01:24:01.246Z,36.97
2018-09-10T01:26:05.530Z,38.70
2018-09-10T01:28:09.744Z,30.73
2018-09-10T01:30:13.949Z,37.40
2018-09-10T01:32:18.135Z,26.67
2018-09-10T01:34:27.510Z,38.03
2018-09-10T01:36:31.725Z,25.80
2018-09-10T01:38:35.934Z,39.00
2018-09-10T01:40:40.136Z,35.43
2018-09-10T01:42:44.330Z,25.33
2018-09-10T01:44:48.528Z,39.90
2018-09-10T01:47:15.576Z,37.73
2018-09-10T01:49:49.161Z,37.97
2018-09-10T01:52:17.264Z,37.27
2018-09-10T01:54:30.418Z,37.90
2018-09-10T02:01:45.961Z,35.63
2018-09-10T02:04:14.806Z,25.70
2018-09-10T02:06:20.693Z,34.67
2018-09-10T02:08:25.074Z,20.43
2018-09-10T02:10:29.289Z,31.67
2018-09-10T02:12:33.593Z,30.30
2018-09-10T02:14:37.997Z,31.37
2018-09-10T02:16:42.233Z,36.83
2018-09-10T02:18:47.413Z,37.50
2018-09-10T02:20:51.609Z,36.13
2018-09-10T02:22:55.579Z,32.83
2018-09-10T02:24:59.565Z,32.30
2018-09-10T02:27:03.519Z,31.50
2018-09-10T02:29:07.538Z,29.70
2018-09-10T02:31:11.526Z,28.63
2018-09-10T02:33:15.506Z,26.17
2018-09-10T02:35:19.454Z,26.37
2018-09-10T02:37:23.401Z,28.07
2018-09-10T02:39:27.376Z,29.53
2018-09-10T02:41:31.957Z,27.37
2018-09-10T02:43:36.664Z,31.13
2018-09-10T02:45:41.051Z,29.07
2018-09-10T02:47:45.290Z,24.17
2018-09-10T02:50:04.183Z,25.23
2018-09-10T02:52:09.571Z,26.20
2018-09-10T02:54:14.388Z,28.63
2018-09-10T02:56:18.656Z,29.40
2018-09-10T02:58:25.810Z,28.47
2018-09-10T03:00:30.882Z,25.90
2018-09-10T03:02:35.447Z,26.00
2018-09-10T03:04:40.538Z,25.23
2018-09-10T03:06:44.804Z,23.20
2018-09-10T03:08:49.407Z,23.73
2018-09-10T03:10:54.262Z,21.97
2018-09-10T03:13:01.900Z,22.77
2018-09-10T03:15:06.365Z,23.38
2018-09-10T03:17:10.581Z,24.90
2018-09-10T03:19:27.419Z,21.70
2018-09-10T03:21:40.146Z,24.70
2018-09-10T03:23:44.685Z,25.70
2018-09-10T03:25:48.943Z,28.53
2018-09-10T03:27:53.118Z,27.17
2018-09-10T03:29:58.878Z,26.23
2018-09-10T03:32:03.113Z,34.43
2018-09-10T03:34:09.181Z,32.93
2018-09-10T03:36:13.422Z,28.97
2018-09-10T03:38:24.936Z,37.00
2018-09-10T03:40:31.614Z,39.87
2018-09-10T03:42:36.413Z,39.10
2018-09-10T03:44:43.694Z,28.77
2018-09-10T03:46:48.214Z,40.17
2018-09-10T03:48:56.691Z,42.30
2018-09-10T03:51:01.939Z,40.73
2018-09-10T03:53:07.084Z,37.60
2018-09-10T03:55:17.051Z,32.23
2018-09-10T03:57:21.963Z,31.70
2018-09-10T03:59:31.012Z,30.93
2018-09-10T04:01:36.747Z,25.87
2018-09-10T04:03:44.765Z,29.30
2018-09-10T04:05:49.394Z,26.77
2018-09-10T04:07:53.960Z,24.67
2018-09-10T04:09:59.621Z,20.97
2018-09-10T04:12:04.710Z,18.20
2018-09-10T04:14:09.151Z,19.23
2018-09-10T04:16:13.876Z,17.67
2018-09-10T04:18:18.474Z,17.20
2018-09-10T04:20:23.012Z,15.53
2018-09-10T04:22:27.554Z,14.00
2018-09-10T04:24:32.036Z,14.80
2018-09-10T04:26:36.633Z,12.10
2018-09-10T04:28:41.197Z,13.70
2018-09-10T04:30:45.783Z,15.00
2018-09-10T04:32:50.409Z,13.07
2018-09-10T04:34:55.560Z,15.57
2018-09-10T04:37:00.247Z,10.83
2018-09-10T04:39:06.876Z,9.37
2018-09-10T04:41:11.627Z,9.57
2018-09-10T04:43:16.176Z,11.83
2018-09-10T04:45:21.394Z,8.53
2018-09-10T04:47:26.256Z,8.70
2018-09-10T04:49:30.821Z,8.63
2018-09-10T04:51:35.511Z,9.27
2018-09-10T04:53:40.606Z,7.30
2018-09-10T04:55:45.709Z,6.87
2018-09-10T04:57:50.334Z,7.87
2018-09-10T04:59:54.972Z,7.53
2018-09-10T05:02:00.415Z,8.17
2018-09-10T05:04:05.266Z,7.57
2018-09-10T05:06:10.985Z,6.87
2018-09-10T05:08:15.678Z,11.07
2018-09-10T05:10:20.833Z,7.23
2018-09-10T05:12:25.278Z,7.70
2018-09-10T05:14:29.903Z,6.93
2018-09-10T05:16:34.584Z,7.50
2018-09-10T05:18:40.382Z,6.23
2018-09-10T05:20:44.963Z,7.13
2018-09-10T05:22:49.623Z,9.53
2018-09-10T05:24:55.335Z,7.57
2018-09-10T05:27:00.314Z,7.57
2018-09-10T05:29:04.788Z,6.30
2018-09-10T05:31:09.418Z,6.93
2018-09-10T05:33:14.108Z,6.73
2018-09-10T05:35:18.563Z,7.97
2018-09-10T05:37:23.167Z,7.43
2018-09-10T05:39:27.772Z,7.47
2018-09-10T05:41:32.351Z,6.60
2018-09-10T05:43:37.381Z,7.10
2018-09-10T05:45:41.875Z,6.57
2018-09-10T05:47:46.498Z,6.50
2018-09-10T05:49:51.142Z,6.53
2018-09-10T05:51:56.137Z,7.37
2018-09-10T05:54:00.772Z,7.50
2018-09-10T05:56:05.371Z,8.40
2018-09-10T05:58:10.268Z,8.47
2018-09-10T06:00:14.948Z,7.37
2018-09-10T06:02:20.151Z,7.27
2018-09-10T06:04:24.707Z,7.60
2018-09-10T06:06:29.927Z,7.13
2018-09-10T06:08:34.512Z,6.83
2018-09-10T06:10:39.853Z,6.93
2018-09-10T06:12:44.216Z,7.90
2018-09-10T06:14:48.899Z,7.27
2018-09-10T06:16:53.650Z,7.47
2018-09-10T06:18:58.154Z,8.07
2018-09-10T06:21:02.741Z,8.10
2018-09-10T06:23:07.366Z,7.43
2018-09-10T06:25:11.937Z,8.93
2018-09-10T06:27:16.602Z,7.70
2018-09-10T06:29:21.507Z,8.50
2018-09-10T06:31:26.143Z,7.97
2018-09-10T06:33:30.828Z,8.10
2018-09-10T06:35:36.232Z,7.13
2018-09-10T06:37:40.827Z,7.77
2018-09-10T06:39:45.452Z,8.40
2018-09-10T06:41:50.026Z,8.20
2018-09-10T06:43:54.513Z,8.40
2018-09-10T06:45:59.078Z,6.43
2018-09-10T06:48:03.774Z,8.57
2018-09-10T06:50:08.194Z,8.67
2018-09-10T06:52:12.630Z,8.07
2018-09-10T06:54:17.255Z,8.73
2018-09-10T06:56:21.979Z,9.23
2018-09-10T06:58:26.666Z,9.10
2018-09-10T07:00:31.180Z,7.87
2018-09-10T07:02:35.546Z,9.93
2018-09-10T07:04:39.911Z,9.97
2018-09-10T07:06:44.850Z,9.90
2018-09-10T07:08:49.618Z,9.93
2018-09-10T07:10:54.191Z,9.50
2018-09-10T07:12:58.745Z,9.20
2018-09-10T07:15:04.083Z,9.40
2018-09-10T07:17:08.562Z,8.83
2018-09-10T07:19:13.550Z,9.57
2018-09-10T07:21:18.006Z,8.60
2018-09-10T07:23:22.754Z,9.27
2018-09-10T07:25:27.241Z,8.00
2018-09-10T07:27:31.879Z,7.30
2018-09-10T07:29:36.379Z,9.07
2018-09-10T07:31:41.017Z,8.30
2018-09-10T07:33:45.551Z,8.83
2018-09-10T07:35:49.868Z,8.80
2018-09-10T07:37:54.274Z,9.00
2018-09-10T07:39:59.259Z,8.53
2018-09-10T07:42:03.799Z,8.50
2018-09-10T07:44:09.081Z,7.67
2018-09-10T07:46:13.467Z,9.37
2018-09-10T07:48:18.579Z,7.33
2018-09-10T07:50:23.127Z,7.83
2018-09-10T07:52:28.185Z,7.33
2018-09-10T07:54:33.138Z,7.07
2018-09-10T07:56:37.578Z,8.73
2018-09-10T07:58:42.325Z,7.63
2018-09-10T08:00:46.525Z,5.97
2018-09-10T08:02:50.830Z,7.43
2018-09-10T08:04:55.056Z,7.53
2018-09-10T08:06:59.329Z,8.23
2018-09-10T08:09:03.691Z,7.50
2018-09-10T08:11:07.897Z,8.43
2018-09-10T08:13:12.150Z,8.57
2018-09-10T08:15:16.456Z,7.80
2018-09-10T08:17:20.698Z,7.63
2018-09-10T08:19:25.338Z,7.93
2018-09-10T08:21:29.591Z,7.90
2018-09-10T08:23:33.783Z,6.83
2018-09-10T08:25:38.534Z,6.10
2018-09-10T08:27:42.813Z,6.97
2018-09-10T08:29:47.000Z,6.83
2018-09-10T08:31:51.243Z,7.13
2018-09-10T08:33:55.719Z,6.10
2018-09-10T08:35:59.950Z,7.03
2018-09-10T08:38:04.175Z,7.13
2018-09-10T08:40:08.370Z,7.90
2018-09-10T08:42:12.594Z,6.80
2018-09-10T08:44:16.866Z,7.17
2018-09-10T08:46:21.047Z,6.60
2018-09-10T08:48:25.390Z,6.33
2018-09-10T08:50:29.522Z,6.33
2018-09-10T08:52:33.734Z,6.50
2018-09-10T08:54:38.232Z,6.20
2018-09-10T08:56:42.215Z,6.17
2018-09-10T08:58:46.466Z,6.90
2018-09-10T09:00:50.733Z,7.00
2018-09-10T09:02:54.912Z,6.70
2018-09-10T09:04:59.292Z,6.90
2018-09-10T09:07:03.540Z,6.47
2018-09-10T09:09:08.899Z,7.07
2018-09-10T09:11:13.115Z,7.50
2018-09-10T09:13:17.388Z,6.43
2018-09-10T09:15:21.618Z,6.20
2018-09-10T09:17:25.849Z,6.53
2018-09-10T09:19:30.124Z,6.17
2018-09-10T09:21:34.326Z,5.17
2018-09-10T09:23:38.654Z,5.73
2018-09-10T09:25:42.893Z,5.90
2018-09-10T09:27:47.145Z,5.43
2018-09-10T09:29:51.374Z,4.73
2018-09-10T09:31:55.593Z,4.77
2018-09-10T09:33:59.778Z,4.30
2018-09-10T09:36:09.113Z,3.90
2018-09-10T09:38:19.034Z,3.70
2018-09-10T09:40:28.314Z,3.00
2018-09-10T09:42:37.588Z,4.03
2018-09-10T09:44:46.960Z,4.00
2018-09-10T09:46:51.136Z,3.67
2018-09-10T09:48:55.362Z,3.40
2018-09-10T09:50:59.503Z,3.80
2018-09-10T09:53:03.747Z,3.00
2018-09-10T09:55:07.994Z,2.30
2018-09-10T09:57:12.222Z,2.80
2018-09-10T09:59:16.483Z,2.97
2018-09-10T10:01:22.343Z,2.97
2018-09-10T10:03:31.654Z,3.67
2018-09-10T10:05:35.860Z,2.93
2018-09-10T10:07:40.073Z,3.73
2018-09-10T10:09:44.362Z,3.00
2018-09-10T10:11:48.661Z,2.60
2018-09-10T10:13:52.835Z,3.10
2018-09-10T10:15:57.046Z,2.73
2018-09-10T10:18:01.188Z,2.93
2018-09-10T10:20:06.531Z,3.20
2018-09-10T10:22:10.769Z,2.77
2018-09-10T10:24:15.038Z,2.77
2018-09-10T10:26:19.295Z,2.80
2018-09-10T10:28:23.517Z,3.00
2018-09-10T10:30:27.751Z,2.90
2018-09-10T10:32:32.017Z,3.00
2018-09-10T10:34:36.314Z,2.47
2018-09-10T10:36:40.550Z,2.87
2018-09-10T10:38:44.739Z,2.27
2018-09-10T10:40:49.354Z,2.60
2018-09-10T10:42:53.559Z,2.63
2018-09-10T10:44:57.784Z,3.10
2018-09-10T10:47:02.042Z,3.33
2018-09-10T10:49:06.406Z,2.47
2018-09-10T10:51:10.678Z,2.70
2018-09-10T10:53:14.886Z,2.50
2018-09-10T10:55:19.153Z,2.70
2018-09-10T10:57:23.372Z,2.47
2018-09-10T10:59:27.602Z,2.40
2018-09-10T11:01:31.817Z,2.40
2018-09-10T11:03:36.071Z,2.60
2018-09-10T11:05:40.352Z,2.27
2018-09-10T11:07:44.537Z,2.90
2018-09-10T11:09:48.753Z,2.33
2018-09-10T11:11:52.996Z,2.17
2018-09-10T11:13:57.627Z,2.40
2018-09-10T11:16:02.219Z,2.60
2018-09-10T11:18:06.979Z,2.50
2018-09-10T11:20:11.349Z,2.70
2018-09-10T11:22:15.540Z,2.20
2018-09-10T11:24:19.778Z,3.20
2018-09-10T11:26:23.968Z,2.93
2018-09-10T11:28:28.124Z,3.20
2018-09-10T11:30:32.419Z,2.63
2018-09-10T11:32:36.626Z,2.97
2018-09-10T11:34:42.535Z,2.57
2018-09-10T11:36:47.357Z,3.03
2018-09-10T11:38:51.589Z,3.27
2018-09-10T11:40:56.176Z,2.80
2018-09-10T11:43:00.411Z,2.77
2018-09-10T11:45:04.657Z,3.57
2018-09-10T11:47:08.919Z,2.70
2018-09-10T11:49:24.190Z,2.23
2018-09-10T11:51:29.415Z,2.17
2018-09-10T11:53:40.873Z,2.73
2018-09-10T11:55:47.442Z,2.40
2018-09-10T11:57:55.375Z,2.50
2018-09-10T11:59:59.655Z,2.57
2018-09-10T12:02:03.967Z,3.23
2018-09-10T12:04:08.342Z,2.90
2018-09-10T12:06:12.843Z,2.87
2018-09-10T12:08:17.047Z,2.70
2018-09-10T12:10:22.480Z,3.03
2018-09-10T12:12:26.834Z,2.67
2018-09-10T12:14:31.089Z,2.70
2018-09-10T12:16:35.282Z,2.90
2018-09-10T12:18:44.462Z,2.33
2018-09-10T12:20:49.840Z,3.30
2018-09-10T12:22:54.042Z,2.47
2018-09-10T12:25:01.035Z,3.00
2018-09-10T12:27:05.341Z,3.27
2018-09-10T12:29:09.555Z,3.17
2018-09-10T12:31:13.782Z,3.07
2018-09-10T12:33:17.906Z,2.97
2018-09-10T12:35:22.223Z,3.00
2018-09-10T12:37:32.627Z,3.20
2018-09-10T12:39:36.927Z,3.07
2018-09-10T12:41:41.545Z,2.77
2018-09-10T12:43:45.732Z,3.00
2018-09-10T12:45:50.022Z,2.90
2018-09-10T12:47:54.229Z,2.80
2018-09-10T12:49:58.414Z,3.17
2018-09-10T12:52:02.923Z,2.60
2018-09-10T12:54:07.123Z,3.20
2018-09-10T12:56:11.387Z,3.13
2018-09-10T12:58:17.026Z,2.57
2018-09-10T13:00:24.254Z,2.97
2018-09-10T13:02:30.179Z,3.23
2018-09-10T13:04:34.384Z,2.87
2018-09-10T13:06:40.821Z,2.90
2018-09-10T13:08:50.463Z,3.00
2018-09-10T13:10:54.644Z,2.67
2018-09-10T13:13:01.239Z,2.63
2018-09-10T13:15:05.563Z,2.30
2018-09-10T13:17:09.706Z,2.87
2018-09-10T13:19:13.910Z,3.03
2018-09-10T13:21:18.699Z,3.00
2018-09-10T13:23:22.927Z,3.33
2018-09-10T13:25:27.167Z,3.10
2018-09-10T13:27:31.614Z,3.20
2018-09-10T13:29:38.714Z,3.73
2018-09-10T13:31:43.337Z,2.73
2018-09-10T13:33:48.269Z,3.00
2018-09-10T13:35:52.659Z,2.93
2018-09-10T13:37:56.848Z,2.80
2018-09-10T13:40:01.079Z,2.77
2018-09-10T13:42:05.825Z,3.00
2018-09-10T13:44:10.014Z,3.17
2018-09-10T13:46:14.231Z,5.67
2018-09-10T13:48:18.429Z,3.20
2018-09-10T13:50:22.671Z,3.17
2018-09-10T13:52:26.866Z,4.10
2018-09-10T13:54:31.219Z,3.03
2018-09-10T13:56:35.443Z,3.13
2018-09-10T13:58:39.613Z,3.77
2018-09-10T14:00:43.796Z,3.00
2018-09-10T14:02:48.018Z,3.20
2018-09-10T14:04:52.304Z,3.00
2018-09-10T14:06:56.497Z,2.30
2018-09-10T14:09:00.681Z,2.23
2018-09-10T14:11:04.965Z,1.90
2018-09-10T14:13:09.156Z,2.47
2018-09-10T14:15:13.387Z,2.60
2018-09-10T14:17:17.612Z,2.53
2018-09-10T14:19:21.870Z,3.00
2018-09-10T14:21:26.107Z,2.63
2018-09-10T14:23:30.301Z,2.87
2018-09-10T14:25:34.509Z,2.67
2018-09-10T14:27:38.773Z,2.77
2018-09-10T14:29:42.981Z,3.33
2018-09-10T14:31:47.178Z,2.70
2018-09-10T14:33:51.378Z,2.50
2018-09-10T14:35:55.701Z,2.83
2018-09-10T14:38:00.308Z,2.90
2018-09-10T14:40:04.603Z,2.40
2018-09-10T14:42:08.852Z,2.57
2018-09-10T14:44:13.076Z,2.67
2018-09-10T14:46:17.270Z,2.20
2018-09-10T14:48:21.782Z,2.50
2018-09-10T14:50:26.023Z,2.53
2018-09-10T14:52:30.215Z,2.30
2018-09-10T14:54:34.450Z,2.43
2018-09-10T14:56:38.722Z,2.77
2018-09-10T14:58:42.971Z,2.50
2018-09-10T15:00:47.496Z,2.60
2018-09-10T15:02:51.673Z,2.47
2018-09-10T15:04:55.945Z,2.40
2018-09-10T15:07:00.284Z,2.30
2018-09-10T15:09:05.560Z,2.37
2018-09-10T15:11:09.843Z,2.20
2018-09-10T15:13:14.055Z,2.53
2018-09-10T15:15:18.250Z,1.90
2018-09-10T15:17:22.462Z,2.20
2018-09-10T15:19:26.646Z,2.23
2018-09-10T15:21:30.919Z,2.67
2018-09-10T15:23:35.174Z,2.47
2018-09-10T15:25:39.389Z,2.37
2018-09-10T15:27:43.966Z,2.30
2018-09-10T15:29:48.159Z,2.13
2018-09-10T15:31:52.387Z,1.80
2018-09-10T15:33:56.926Z,3.00
2018-09-10T15:36:01.128Z,2.50
2018-09-10T15:38:05.513Z,2.30
2018-09-10T15:40:09.830Z,2.70
2018-09-10T15:42:14.071Z,2.00
2018-09-10T15:44:18.313Z,2.30
2018-09-10T15:46:22.480Z,2.03
2018-09-10T15:48:27.079Z,2.40
2018-09-10T15:50:31.357Z,2.10
2018-09-10T15:52:35.552Z,2.27
2018-09-10T15:54:39.736Z,1.87
2018-09-10T15:56:44.020Z,1.90
2018-09-10T15:58:48.243Z,2.13
2018-09-10T16:00:52.666Z,2.50
2018-09-10T16:02:56.829Z,2.43
2018-09-10T16:05:01.086Z,2.00
2018-09-10T16:07:05.316Z,2.27
2018-09-10T16:09:09.891Z,1.73
2018-09-10T16:11:14.087Z,1.97
2018-09-10T16:13:18.339Z,1.80
2018-09-10T16:15:22.562Z,2.33
2018-09-10T16:17:26.854Z,1.87
2018-09-10T16:19:31.029Z,1.93
2018-09-10T16:21:35.220Z,1.80
2018-09-10T16:23:39.732Z,1.63
2018-09-10T16:25:43.934Z,1.60
2018-09-10T16:27:48.061Z,1.80
2018-09-10T16:29:52.328Z,1.70
2018-09-10T16:31:56.470Z,1.53
2018-09-10T16:34:00.742Z,1.43
2018-09-10T16:36:04.901Z,1.63
2018-09-10T16:38:09.146Z,1.93
2018-09-10T16:40:13.312Z,2.50
2018-09-10T16:42:17.537Z,1.90
2018-09-10T16:44:21.796Z,2.13
2018-09-10T16:46:26.020Z,1.90
2018-09-10T16:48:30.317Z,2.20
2018-09-10T16:50:34.537Z,1.90
2018-09-10T16:52:38.767Z,1.70
2018-09-10T16:54:43.024Z,2.00
2018-09-10T16:56:47.163Z,1.60
2018-09-10T16:58:51.494Z,2.20
2018-09-10T17:00:55.663Z,1.83
2018-09-10T17:02:59.915Z,2.00
2018-09-10T17:05:04.310Z,2.00
2018-09-10T17:07:08.562Z,2.03
2018-09-10T17:09:13.226Z,1.47
2018-09-10T17:11:17.477Z,1.63
2018-09-10T17:13:21.639Z,2.03
2018-09-10T17:15:25.928Z,2.17
2018-09-10T17:17:30.152Z,1.80
2018-09-10T17:19:34.624Z,2.33
2018-09-10T17:21:38.839Z,2.10
2018-09-10T17:23:43.017Z,1.80
2018-09-10T17:25:51.950Z,1.70
2018-09-10T17:27:56.133Z,1.60
2018-09-10T17:30:00.328Z,1.93
2018-09-10T17:32:04.503Z,2.20
2018-09-10T17:34:08.719Z,2.00
2018-09-10T17:36:12.999Z,1.80
2018-09-10T17:38:17.357Z,1.67
2018-09-10T17:40:21.548Z,1.90
2018-09-10T17:42:25.838Z,2.30
2018-09-10T17:44:30.004Z,1.40
2018-09-10T17:46:34.208Z,1.70
2018-09-10T17:48:38.466Z,1.90
2018-09-10T17:50:42.704Z,1.83
2018-09-10T17:52:46.864Z,1.40
2018-09-10T17:54:51.165Z,1.93
2018-09-10T17:56:55.366Z,2.07
2018-09-10T17:58:59.554Z,2.20
2018-09-10T18:01:03.807Z,2.30
2018-09-10T18:03:09.307Z,2.00
2018-09-10T18:05:13.529Z,2.10
2018-09-10T18:07:17.802Z,1.70
2018-09-10T18:09:21.997Z,2.43
2018-09-10T18:11:26.163Z,1.80
2018-09-10T18:13:30.335Z,1.80
2018-09-10T18:15:34.510Z,1.87
2018-09-10T18:17:38.758Z,2.47
2018-09-10T18:19:42.972Z,2.00
2018-09-10T18:21:47.179Z,1.80
2018-09-10T18:23:51.410Z,1.80
2018-09-10T18:25:55.614Z,2.40
2018-09-10T18:27:59.989Z,1.77
2018-09-10T18:30:04.282Z,1.50
2018-09-10T18:32:08.498Z,1.90
2018-09-10T18:34:12.849Z,1.90
2018-09-10T18:36:17.090Z,2.10
2018-09-10T18:38:21.318Z,2.33
2018-09-10T18:40:25.530Z,2.40
2018-09-10T18:42:29.714Z,1.80
2018-09-10T18:44:34.035Z,1.77
2018-09-10T18:46:38.708Z,1.93
2018-09-10T18:48:43.292Z,2.10
2018-09-10T18:50:47.508Z,2.27
2018-09-10T18:52:51.715Z,2.07
2018-09-10T18:54:55.931Z,2.30
2018-09-10T18:57:00.117Z,2.03
2018-09-10T18:59:04.469Z,1.70
2018-09-10T19:01:08.922Z,1.70
2018-09-10T19:03:13.094Z,2.30
2018-09-10T19:05:17.373Z,2.40
2018-09-10T19:07:21.585Z,2.83
2018-09-10T19:09:25.795Z,1.87
2018-09-10T19:11:30.108Z,1.83
2018-09-10T19:13:34.321Z,2.40
2018-09-10T19:15:38.646Z,1.90
2018-09-10T19:17:42.873Z,2.33
2018-09-10T19:19:47.240Z,1.80
2018-09-10T19:21:51.519Z,1.87
2018-09-10T19:23:55.714Z,2.00
2018-09-10T19:25:59.895Z,1.83
2018-09-10T19:28:04.361Z,1.80
2018-09-10T19:30:08.626Z,1.67
2018-09-10T19:32:12.824Z,2.23
2018-09-10T19:34:17.030Z,2.40
2018-09-10T19:36:21.242Z,1.37
2018-09-10T19:38:25.501Z,1.97
2018-09-10T19:40:30.183Z,1.93
2018-09-10T19:42:34.391Z,1.90
2018-09-10T19:44:38.562Z,2.00
2018-09-10T19:46:50.774Z,1.93
2018-09-10T19:48:55.293Z,1.87
2018-09-10T19:51:04.773Z,2.00
2018-09-10T19:53:12.774Z,1.70
2018-09-10T19:55:17.072Z,1.90
2018-09-10T19:57:21.330Z,1.70
2018-09-10T19:59:25.608Z,1.90
2018-09-10T20:01:29.843Z,1.70
2018-09-10T20:03:34.088Z,1.73
2018-09-10T20:05:38.422Z,1.60
2018-09-10T20:07:42.652Z,1.77
2018-09-10T20:09:50.513Z,1.87
2018-09-10T20:11:54.678Z,2.20
2018-09-10T20:14:03.167Z,1.70
2018-09-10T20:16:07.338Z,2.10
2018-09-10T20:18:11.535Z,1.70
2018-09-10T20:20:16.555Z,2.50
2018-09-10T20:22:20.751Z,1.60
2018-09-10T20:24:24.988Z,2.40
2018-09-10T20:26:29.346Z,1.90
2018-09-10T20:28:33.600Z,2.17
2018-09-10T20:30:37.873Z,1.80
2018-09-10T20:32:42.117Z,2.23
2018-09-10T20:34:46.339Z,2.17
2018-09-10T20:36:50.662Z,2.90
2018-09-10T20:38:54.886Z,2.07
2018-09-10T20:40:59.081Z,1.87
2018-09-10T20:43:09.898Z,2.10
2018-09-10T20:45:14.260Z,2.10
2018-09-10T20:47:18.440Z,1.67
2018-09-10T20:49:22.656Z,2.00
2018-09-10T20:51:26.928Z,2.13
2018-09-10T20:53:33.903Z,2.23
2018-09-10T20:55:38.072Z,2.23
2018-09-10T20:57:42.855Z,2.70
2018-09-10T20:59:48.907Z,2.40
2018-09-10T21:01:54.803Z,2.77
2018-09-10T21:03:59.151Z,2.60
2018-09-10T21:06:09.772Z,2.20
2018-09-10T21:08:14.204Z,2.27
2018-09-10T21:10:18.436Z,2.40
2018-09-10T21:12:22.615Z,2.77
2018-09-10T21:14:26.874Z,2.80
2018-09-10T21:16:31.066Z,3.40
2018-09-10T21:18:35.310Z,2.60
2018-09-10T21:20:39.543Z,2.73
2018-09-10T21:22:43.809Z,2.70
2018-09-10T21:24:47.993Z,2.10
2018-09-10T21:26:52.227Z,2.37
2018-09-10T21:28:56.473Z,2.60
2018-09-10T21:31:00.617Z,2.30
2018-09-10T21:33:04.839Z,2.33
2018-09-10T21:35:09.087Z,2.50
2018-09-10T21:37:13.354Z,2.47
2018-09-10T21:39:17.568Z,2.60
2018-09-10T21:41:21.776Z,2.80
2018-09-10T21:43:25.959Z,2.27
2018-09-10T21:45:30.158Z,2.67
2018-09-10T21:47:34.429Z,2.63
2018-09-10T21:49:38.710Z,2.40
2018-09-10T21:51:44.139Z,2.40
2018-09-10T21:53:48.817Z,2.83
2018-09-10T21:55:53.284Z,2.30
2018-09-10T21:57:57.716Z,2.40
2018-09-10T22:00:02.725Z,3.30
2018-09-10T22:02:07.223Z,1.90
2018-09-10T22:04:11.916Z,1.77
2018-09-10T22:06:16.395Z,2.20
2018-09-10T22:08:21.090Z,1.73
2018-09-10T22:10:25.896Z,2.40
2018-09-10T22:12:32.152Z,1.70
2018-09-10T22:14:36.619Z,2.87
2018-09-10T22:16:41.214Z,2.10
2018-09-10T22:18:45.806Z,2.07
2018-09-10T22:20:50.242Z,3.40
2018-09-10T22:22:55.505Z,2.40
2018-09-10T22:25:00.102Z,2.13
2018-09-10T22:27:05.150Z,2.90
2018-09-10T22:29:09.733Z,2.77
2018-09-10T22:31:14.266Z,2.53
2018-09-10T22:33:18.923Z,2.47
2018-09-10T22:35:23.585Z,1.90
2018-09-10T22:37:28.285Z,2.97
2018-09-10T22:39:32.770Z,3.03
2018-09-10T22:41:38.058Z,2.40
2018-09-10T22:43:43.197Z,2.50
2018-09-10T22:45:47.837Z,2.30
2018-09-10T22:47:52.490Z,2.10
2018-09-10T22:49:57.011Z,1.97
2018-09-10T22:52:01.432Z,3.13
2018-09-10T22:54:05.912Z,2.97
2018-09-10T22:56:10.347Z,2.77
2018-09-10T22:58:14.858Z,3.23
2018-09-10T23:00:19.406Z,2.63
2018-09-10T23:02:25.084Z,2.63
2018-09-10T23:04:30.333Z,2.60
2018-09-10T23:06:34.871Z,2.60
2018-09-10T23:08:39.529Z,2.70
2018-09-10T23:10:44.156Z,2.53
2018-09-10T23:12:48.539Z,3.40
2018-09-10T23:14:52.947Z,2.73
2018-09-10T23:16:57.494Z,2.47
2018-09-10T23:19:01.882Z,2.57
2018-09-10T23:21:06.589Z,2.73
2018-09-10T23:23:11.049Z,3.00
2018-09-10T23:25:15.517Z,3.10
2018-09-10T23:27:20.031Z,2.30
2018-09-10T23:29:25.316Z,2.67
2018-09-10T23:31:29.849Z,2.77
2018-09-10T23:33:34.136Z,2.80
2018-09-10T23:35:38.796Z,2.97
2018-09-10T23:37:43.311Z,2.87
2018-09-10T23:39:47.783Z,3.73
2018-09-10T23:41:52.426Z,2.47
2018-09-10T23:43:57.433Z,2.50
2018-09-10T23:46:02.656Z,2.77
2018-09-10T23:48:07.571Z,2.83
2018-09-10T23:50:12.596Z,2.40
2018-09-10T23:52:17.663Z,2.97
2018-09-10T23:54:22.425Z,2.60
2018-09-10T23:56:26.911Z,2.20
2018-09-10T23:58:32.075Z,2.80
